Time;durP1;ratioP1;P1;durP2;ratioP2;P2;SDS_P1;SDS_P2;PMS_P1;PMS_P2;Temp;Humidity;BMP_temperature;BMP_pressure;BME280_temperature;BME280_humidity;BME280_pressure;Samples;Min_cycle;Max_cycle;Signal;HPM_P1;HPM_P2
2022/01/01 00:00:09;;;;;;;163.77;146.07;;;12.00;99.90;;;12.12;84.59;101218.31;4890340;29;20942;-69
2022/01/01 00:02:41;;;;;;;173.63;142.87;;;12.00;99.90;;;12.13;84.62;101214.56;4899466;29;20509;-69
2022/01/01 00:05:13;;;;;;;138.40;123.97;;;12.00;99.90;;;12.21;84.39;101217.09;4898737;29;21008;-71
2022/01/01 00:07:44;;;;;;;128.40;114.77;;;12.00;99.90;;;12.27;83.89;101226.28;4890686;29;20409;-69
2022/01/01 00:10:12;;;;;;;118.17;105.40;;;12.00;99.90;;;12.21;84.22;101222.50;4880695;29;20532;-69
2022/01/01 00:12:42;;;;;;;100.27;89.37;;;12.00;99.90;;;12.18;83.69;101223.78;4889425;29;20920;-71
2022/01/01 00:15:12;;;;;;;89.37;80.07;;;12.00;99.90;;;12.25;83.39;101229.19;4899507;29;20430;-72
2022/01/01 00:17:41;;;;;;;75.70;67.63;;;12.00;99.90;;;12.26;83.61;101239.00;4896044;29;20545;-70
2022/01/01 00:20:11;;;;;;;61.83;55.30;;;12.10;99.90;;;12.19;83.78;101236.31;4890011;29;20515;-69
2022/01/01 00:22:41;;;;;;;59.33;52.47;;;12.00;99.90;;;12.21;83.38;101227.94;4885320;29;20443;-70
2022/01/01 00:25:11;;;;;;;56.53;50.47;;;12.10;99.90;;;12.29;83.22;101233.19;4879158;29;20398;-71
2022/01/01 00:27:40;;;;;;;48.53;43.33;;;12.00;99.90;;;12.30;83.05;101242.97;4879077;29;20414;-70
2022/01/01 00:30:10;;;;;;;50.40;45.13;;;12.10;99.90;;;12.33;83.17;101248.03;4879265;29;20519;-67
2022/01/01 00:32:40;;;;;;;45.60;40.80;;;12.10;99.90;;;12.34;82.84;101248.88;4879923;29;20887;-72
2022/01/01 00:35:09;;;;;;;40.50;36.25;;;12.20;99.90;;;12.33;82.98;101252.59;4879548;29;20926;-71
2022/01/01 00:37:38;;;;;;;45.10;39.93;;;12.20;99.90;;;12.30;82.98;101261.97;4879953;29;20432;-70
2022/01/01 00:40:09;;;;;;;33.97;30.47;;;12.20;99.90;;;12.41;82.77;101261.38;4879767;29;20437;-71
2022/01/01 00:42:37;;;;;;;30.53;27.40;;;12.20;99.90;;;12.29;82.95;101268.47;4882529;29;20944;-70
2022/01/01 00:45:06;;;;;;;27.53;24.77;;;12.10;99.90;;;12.33;83.06;101275.16;4882388;29;20989;-70
2022/01/01 00:47:35;;;;;;;26.07;23.37;;;12.10;99.90;;;12.32;83.08;101278.91;4883398;29;20435;-71
2022/01/01 00:50:06;;;;;;;27.73;24.83;;;12.20;99.90;;;12.34;82.98;101286.84;4882188;29;20438;-70
2022/01/01 00:52:34;;;;;;;24.07;20.63;;;12.20;99.90;;;12.38;82.81;101288.94;4883189;29;20781;-68
2022/01/01 00:55:02;;;;;;;21.03;19.00;;;12.20;99.90;;;12.39;82.55;101293.31;4883912;29;20984;-72
2022/01/01 00:57:31;;;;;;;21.73;19.50;;;12.20;99.90;;;12.39;82.80;101296.03;4884608;29;20498;-73
2022/01/01 01:00:01;;;;;;;21.40;19.30;;;12.20;99.90;;;12.29;83.12;101284.75;4883124;29;20437;-70
2022/01/01 01:02:30;;;;;;;23.73;21.07;;;12.20;99.90;;;12.32;83.00;101289.75;4884184;29;20525;-70
2022/01/01 01:04:59;;;;;;;22.07;19.70;;;12.20;99.90;;;12.43;82.64;101307.34;4884990;29;20765;-67
2022/01/01 01:07:29;;;;;;;19.80;17.80;;;12.20;99.90;;;12.43;82.62;101312.78;4884535;29;20800;-70
2022/01/01 01:09:58;;;;;;;21.33;18.70;;;12.20;99.90;;;12.38;82.66;101305.25;4886147;29;20465;-69
2022/01/01 01:12:37;;;;;;;20.10;17.77;;;12.20;99.90;;;12.32;82.89;101311.47;4886891;29;20821;-71
2022/01/01 01:15:07;;;;;;;24.40;20.07;;;12.20;99.90;;;12.28;83.30;101310.22;4896058;29;20430;-70
2022/01/01 01:17:35;;;;;;;22.33;20.13;;;12.10;99.90;;;12.38;83.18;101305.25;4887135;29;20455;-71
2022/01/01 01:20:06;;;;;;;24.20;21.67;;;12.20;99.90;;;12.34;83.42;101303.13;4919498;23;21081;-71
2022/01/01 01:22:36;;;;;;;26.03;20.63;;;12.20;99.90;;;12.29;83.67;101313.75;4936552;29;20432;-72
2022/01/01 01:25:05;;;;;;;28.10;23.37;;;12.20;99.90;;;12.27;83.61;101324.81;4946712;29;20411;-72
2022/01/01 01:27:35;;;;;;;26.90;23.87;;;12.10;99.90;;;12.26;83.98;101333.16;4946227;29;20437;-70
2022/01/01 01:30:08;;;;;;;28.47;23.50;;;12.10;99.90;;;12.21;84.11;101331.03;4946976;29;20445;-71
2022/01/01 01:32:36;;;;;;;27.50;24.53;;;12.10;99.90;;;12.16;84.56;101344.38;4945637;28;20445;-71
2022/01/01 01:35:07;;;;;;;29.93;25.20;;;12.10;99.90;;;12.16;84.65;101337.06;4945858;29;20410;-71
2022/01/01 01:37:37;;;;;;;28.83;23.00;;;12.00;99.90;;;12.16;84.56;101344.38;4947451;29;20435;-71
2022/01/01 01:40:09;;;;;;;25.20;22.50;;;12.00;99.90;;;12.16;84.62;101341.66;4943498;29;20472;-72
2022/01/01 01:42:37;;;;;;;27.63;22.30;;;12.00;99.90;;;12.12;84.86;101351.25;4945203;29;20439;-70
2022/01/01 01:45:12;;;;;;;22.93;20.63;;;12.00;99.90;;;12.15;84.49;101359.00;4939324;29;20442;-70
2022/01/01 01:47:41;;;;;;;21.77;19.47;;;12.00;99.90;;;12.09;84.59;101363.34;4936547;28;20507;-71
2022/01/01 01:50:12;;;;;;;29.90;24.23;;;11.90;99.90;;;12.11;85.10;101363.97;4936905;29;20452;-70
2022/01/01 01:52:48;;;;;;;26.90;24.03;;;12.00;99.90;;;12.14;84.92;101358.16;4936920;29;20421;-70
2022/01/01 01:55:17;;;;;;;29.97;25.30;;;11.90;99.90;;;12.13;84.89;101367.34;4936135;29;20450;-71
2022/01/01 01:57:46;;;;;;;29.63;25.03;;;11.90;99.90;;;12.14;85.16;101362.75;4936363;29;21173;-70
2022/01/01 02:00:40;;;;;;;32.80;23.17;;;11.90;99.90;;;12.07;85.27;101368.13;4936503;29;20460;-70
2022/01/01 02:03:10;;;;;;;23.43;20.90;;;11.90;99.90;;;12.08;85.37;101364.38;4936175;29;20429;-71
2022/01/01 02:05:40;;;;;;;21.53;19.23;;;11.90;99.90;;;12.05;85.33;101367.47;4935935;29;20843;-70
2022/01/01 02:08:12;;;;;;;21.80;19.20;;;11.90;99.90;;;12.15;85.03;101378.00;4936163;29;20480;-70
2022/01/01 02:10:41;;;;;;;21.10;18.97;;;11.90;99.90;;;12.06;85.22;101379.16;4935773;29;20994;-71
2022/01/01 02:13:12;;;;;;;23.30;20.27;;;11.90;99.90;;;12.02;85.53;101386.03;4936210;29;20399;-71
2022/01/01 02:15:48;;;;;;;28.50;18.70;;;11.80;99.90;;;12.05;85.00;101391.09;4936487;29;20780;-72
2022/01/01 02:18:16;;;;;;;22.70;17.27;;;11.90;99.90;;;12.02;85.14;101383.31;4936072;29;20478;-70
2022/01/01 02:20:49;;;;;;;24.70;19.13;;;11.90;99.90;;;11.99;85.14;101386.44;4935963;29;21027;-71
2022/01/01 02:23:21;;;;;;;22.97;20.53;;;11.90;99.90;;;11.99;85.21;101389.16;4935960;29;20465;-70
2022/01/01 02:25:50;;;;;;;22.20;18.60;;;11.80;99.90;;;12.06;85.04;101387.31;4936101;29;20411;-72
2022/01/01 02:28:20;;;;;;;23.73;19.97;;;11.90;99.90;;;12.08;84.76;101399.66;4937034;29;20792;-72
2022/01/01 02:30:49;;;;;;;26.53;22.20;;;11.90;99.90;;;12.08;84.91;101401.53;4937056;28;20511;-71
2022/01/01 02:33:18;;;;;;;25.77;20.17;;;11.90;99.90;;;12.05;84.77;101393.81;4936851;29;20402;-72
2022/01/01 02:35:48;;;;;;;25.07;21.50;;;11.90;99.90;;;12.09;84.66;101397.78;4937006;29;20408;-71
2022/01/01 02:38:19;;;;;;;26.17;20.17;;;11.90;99.90;;;12.09;84.93;101397.78;4936662;29;20536;-70
2022/01/01 02:40:48;;;;;;;28.60;20.60;;;11.90;99.90;;;12.13;84.75;101409.91;4936108;29;20464;-72
2022/01/01 02:43:17;;;;;;;24.23;21.03;;;11.90;99.90;;;12.08;84.72;101405.06;4936327;28;20830;-71
2022/01/01 02:45:46;;;;;;;20.67;18.33;;;11.90;99.90;;;12.10;84.71;101402.19;4936229;29;20403;-71
2022/01/01 02:48:14;;;;;;;27.43;20.40;;;11.90;99.90;;;12.09;84.98;101403.22;4935367;29;20428;-70
2022/01/01 02:50:43;;;;;;;23.93;20.13;;;11.90;99.90;;;12.04;84.98;101397.53;4935466;29;20426;-70
2022/01/01 02:53:13;;;;;;;29.63;21.20;;;11.90;99.90;;;12.06;85.17;101398.16;4950232;28;20449;-69
2022/01/01 02:55:44;;;;;;;26.70;19.60;;;11.90;99.90;;;11.98;85.43;101398.34;4934985;29;20852;-70
2022/01/01 02:58:14;;;;;;;28.03;20.67;;;11.90;99.90;;;12.00;85.40;101405.25;4934972;29;20443;-71
2022/01/01 03:00:42;;;;;;;23.10;18.17;;;11.80;99.90;;;12.02;85.03;101407.75;4935116;29;20452;-70
2022/01/01 03:03:11;;;;;;;28.80;20.10;;;11.90;99.90;;;12.04;85.03;101400.25;4935405;29;20402;-70
2022/01/01 03:05:40;;;;;;;27.53;19.63;;;11.80;99.90;;;11.99;84.88;101405.44;4939398;29;20432;-71
2022/01/01 03:08:08;;;;;;;22.37;18.63;;;11.80;99.90;;;12.01;85.11;101415.03;4941447;29;20416;-71
2022/01/01 03:10:38;;;;;;;29.30;18.37;;;11.80;99.90;;;12.05;84.61;101429.06;4939943;29;20464;-71
2022/01/01 03:13:06;;;;;;;21.77;19.43;;;11.90;99.90;;;12.10;84.67;101426.59;4941926;29;20416;-71
2022/01/01 03:15:35;;;;;;;21.27;18.97;;;11.90;99.90;;;12.13;84.68;101426.19;4941178;29;20399;-70
2022/01/01 03:18:03;;;;;;;26.17;18.90;;;11.90;99.90;;;12.13;84.35;101428.91;4941095;29;20851;-71
2022/01/01 03:20:32;;;;;;;21.10;18.50;;;11.90;99.90;;;12.07;84.34;101435.94;4941374;29;20466;-70
2022/01/01 03:23:00;;;;;;;21.77;16.87;;;11.90;99.90;;;12.08;84.29;101439.50;4941769;29;20403;-72
2022/01/01 03:25:29;;;;;;;19.47;17.20;;;11.90;99.90;;;12.11;83.99;101433.66;4941978;29;20424;-71
2022/01/01 03:28:00;;;;;;;20.77;18.60;;;11.90;99.90;;;12.02;84.26;101441.13;4940400;29;20528;-71
2022/01/01 03:30:28;;;;;;;22.57;15.97;;;11.90;99.90;;;12.05;84.36;101448.84;4941458;29;20442;-70
2022/01/01 03:32:57;;;;;;;20.97;15.83;;;11.90;99.90;;;12.01;84.36;101449.47;4945193;29;20428;-69
2022/01/01 03:35:25;;;;;;;23.90;17.73;;;11.90;99.90;;;12.04;84.28;101447.22;4950717;29;20432;-73
2022/01/01 03:37:54;;;;;;;19.37;15.80;;;11.80;99.90;;;12.08;84.04;101458.50;4952001;29;20438;-69
2022/01/01 03:40:22;;;;;;;22.67;17.63;;;11.90;99.90;;;12.07;83.94;101454.09;4951496;28;20446;-70
2022/01/01 03:42:51;;;;;;;24.00;16.60;;;11.90;99.90;;;12.13;83.58;101453.31;4951821;29;20818;-69
2022/01/01 03:45:20;;;;;;;20.80;16.30;;;11.90;99.90;;;11.98;84.01;101439.84;4950599;29;20963;-70
2022/01/01 03:47:49;;;;;;;21.67;17.73;;;11.90;99.90;;;11.97;83.73;101449.03;4945987;29;20432;-71
2022/01/01 03:50:17;;;;;;;18.33;14.77;;;11.80;99.90;;;12.09;83.40;101447.47;4940879;29;20429;-71
2022/01/01 03:52:47;;;;;;;26.70;16.60;;;11.90;99.90;;;12.10;83.54;101451.00;4941319;29;20432;-70
2022/01/01 03:55:17;;;;;;;22.03;16.33;;;11.90;99.90;;;12.03;83.21;101455.53;4940971;29;20439;-71
2022/01/01 03:57:45;;;;;;;21.87;14.60;;;11.90;99.90;;;12.01;83.79;101446.75;4940531;28;20430;-73
2022/01/01 04:00:15;;;;;;;19.73;16.53;;;11.80;99.90;;;12.12;82.92;101451.63;4941239;29;20474;-70
2022/01/01 04:02:45;;;;;;;23.40;14.53;;;11.90;99.90;;;12.10;82.96;101453.72;4940781;29;20430;-70
2022/01/01 04:05:14;;;;;;;20.83;15.00;;;11.90;99.90;;;12.16;82.84;101458.31;4941044;29;20414;-72
2022/01/01 04:07:42;;;;;;;17.87;14.60;;;11.90;99.90;;;12.10;82.71;101451.00;4941315;29;20490;-71
2022/01/01 04:10:12;;;;;;;21.00;14.77;;;11.90;99.90;;;12.04;82.90;101463.47;4941243;29;20459;-71
2022/01/01 04:12:40;;;;;;;18.23;15.07;;;11.90;99.90;;;12.16;82.72;101474.59;4940952;29;20411;-70
2022/01/01 04:15:09;;;;;;;19.10;15.47;;;11.90;99.90;;;12.08;82.72;101466.63;4940877;29;20864;-71
2022/01/01 04:17:38;;;;;;;20.83;15.23;;;11.90;99.90;;;12.14;82.85;101466.69;4937451;29;20985;-71
2022/01/01 04:20:09;;;;;;;26.93;14.73;;;11.90;99.90;;;12.08;83.02;101477.50;4937918;29;20438;-71
2022/01/01 04:22:38;;;;;;;17.30;13.87;;;11.90;99.90;;;12.15;82.71;101483.81;4939246;29;20399;-72
2022/01/01 04:25:07;;;;;;;16.70;14.70;;;11.90;99.90;;;12.12;82.75;101495.03;4939820;29;20777;-71
2022/01/01 04:27:35;;;;;;;25.13;15.83;;;11.90;99.90;;;12.07;82.79;101492.91;4938273;28;20457;-70
2022/01/01 04:30:05;;;;;;;16.70;14.53;;;11.90;99.90;;;12.02;83.17;101499.97;4937918;29;20456;-70
2022/01/01 04:32:33;;;;;;;17.20;14.27;;;11.90;99.90;;;12.05;83.07;101494.97;4937631;28;20407;-71
2022/01/01 04:35:01;;;;;;;19.30;14.83;;;11.80;99.90;;;12.07;82.93;101497.50;4937649;29;20905;-71
2022/01/01 04:37:31;;;;;;;20.00;13.20;;;11.80;99.90;;;12.04;82.89;101481.63;4937516;29;20444;-71
2022/01/01 04:40:00;;;;;;;16.87;14.10;;;11.90;99.90;;;12.03;82.67;101493.50;4938006;29;20419;-71
2022/01/01 04:42:30;;;;;;;16.67;14.10;;;11.90;99.90;;;12.06;82.78;101490.41;4937558;29;20468;-70
2022/01/01 04:44:58;;;;;;;20.60;15.73;;;11.90;99.90;;;12.07;82.68;101487.50;4937512;29;20436;-71
2022/01/01 04:47:28;;;;;;;20.50;16.17;;;11.90;99.90;;;12.10;82.66;101497.94;4937647;29;20444;-71
2022/01/01 04:49:57;;;;;;;20.63;14.97;;;11.90;99.90;;;12.01;82.64;101493.69;4939153;29;20408;-71
2022/01/01 04:52:26;;;;;;;20.73;15.57;;;11.90;99.90;;;12.00;82.88;101492.03;4939210;29;20460;-70
2022/01/01 04:54:56;;;;;;;25.50;17.17;;;11.80;99.90;;;12.05;82.53;101500.41;4940380;28;20900;-71
2022/01/01 04:57:30;;;;;;;20.73;14.33;;;11.80;99.90;;;12.06;82.80;101501.25;4940104;29;20424;-71
2022/01/01 04:59:59;;;;;;;24.50;15.30;;;11.80;99.90;;;12.03;82.57;101491.66;4939173;29;20425;-71
2022/01/01 05:02:28;;;;;;;20.83;14.00;;;11.80;99.90;;;12.05;82.46;101494.97;4939025;29;20837;-71
2022/01/01 05:04:56;;;;;;;18.60;15.37;;;11.80;99.90;;;12.03;82.55;101497.06;4937604;29;20399;-71
2022/01/01 05:07:24;;;;;;;17.23;14.90;;;11.80;99.90;;;12.08;82.54;101500.03;4937390;29;20436;-72
2022/01/01 05:09:55;;;;;;;25.30;19.40;;;11.90;99.90;;;12.09;82.18;101490.03;4936967;29;20395;-71
2022/01/01 05:12:23;;;;;;;24.57;18.07;;;11.90;99.90;;;12.08;82.16;101494.59;4936877;29;20436;-72
2022/01/01 05:14:52;;;;;;;24.63;16.03;;;11.90;99.90;;;12.08;82.55;101505.47;4936991;29;20422;-70
2022/01/01 05:17:20;;;;;;;25.80;14.87;;;11.90;99.90;;;12.10;82.28;101510.69;4936771;29;20418;-70
2022/01/01 05:19:49;;;;;;;20.47;16.97;;;11.90;99.90;;;12.10;82.28;101507.97;4936823;29;20980;-71
2022/01/01 05:22:18;;;;;;;20.33;15.50;;;11.90;99.90;;;12.00;82.51;101497.47;4937293;28;20924;-71
2022/01/01 05:24:47;;;;;;;22.30;16.90;;;11.80;99.90;;;12.02;82.48;101506.22;4937655;28;20918;-70
2022/01/01 05:27:16;;;;;;;26.90;16.30;;;11.80;99.90;;;12.09;82.35;101512.56;4937238;29;20492;-72
2022/01/01 05:29:45;;;;;;;22.40;16.00;;;11.90;99.90;;;12.18;82.02;101519.53;4938378;29;20413;-70
2022/01/01 05:32:13;;;;;;;23.27;15.87;;;11.90;99.90;;;12.15;82.21;101513.66;4940045;29;20938;-72
2022/01/01 05:34:42;;;;;;;22.40;15.60;;;11.90;99.90;;;12.18;82.00;101522.22;4942604;28;20932;-70
2022/01/01 05:37:11;;;;;;;21.73;16.70;;;11.90;99.90;;;12.16;81.70;101518.03;4942805;29;20439;-71
2022/01/01 05:39:40;;;;;;;24.57;15.93;;;11.90;99.90;;;12.19;81.78;101523.91;4944136;29;20472;-71
2022/01/01 05:42:09;;;;;;;29.53;16.90;;;12.00;99.90;;;12.09;82.12;101530.72;4942497;29;20439;-70
2022/01/01 05:44:39;;;;;;;24.90;15.87;;;11.90;99.90;;;12.09;82.01;101534.28;4936604;29;20408;-70
2022/01/01 05:47:07;;;;;;;23.27;18.80;;;11.90;99.90;;;12.14;81.75;101541.81;4936059;29;20448;-70
2022/01/01 05:49:36;;;;;;;24.13;17.30;;;12.00;99.90;;;12.05;81.88;101532.97;4936312;29;20395;-69
2022/01/01 05:52:08;;;;;;;24.90;18.23;;;11.90;99.90;;;12.10;82.01;101537.81;4936878;29;20827;-69
2022/01/01 05:54:36;;;;;;;27.67;18.60;;;12.00;99.90;;;12.09;81.94;101541.56;4936672;29;20407;-70
2022/01/01 05:57:06;;;;;;;26.57;18.00;;;11.90;99.90;;;12.12;82.10;101538.44;4940395;29;20403;-71
2022/01/01 05:59:34;;;;;;;19.70;16.17;;;11.90;99.90;;;12.11;82.04;101553.03;4943017;29;20447;-70
2022/01/01 06:02:04;;;;;;;24.10;17.27;;;11.90;99.90;;;12.13;81.33;101546.41;4942987;29;20791;-70
2022/01/01 06:04:33;;;;;;;21.53;18.33;;;11.90;99.90;;;12.14;81.82;101550.81;4942800;29;20398;-70
2022/01/01 06:07:01;;;;;;;21.83;16.17;;;11.90;99.90;;;12.15;81.51;101551.66;4943122;29;20970;-71
2022/01/01 06:09:29;;;;;;;21.83;16.90;;;11.90;99.90;;;12.08;81.94;101540.72;4937494;29;20391;-71
2022/01/01 06:11:57;;;;;;;22.57;17.47;;;12.00;99.90;;;12.17;81.64;101557.69;4936684;29;20452;-70
2022/01/01 06:14:26;;;;;;;30.87;18.63;;;11.90;99.90;;;12.17;81.17;101554.97;4935582;29;20804;-70
2022/01/01 06:16:55;;;;;;;26.90;17.30;;;11.90;99.90;;;12.18;81.19;101562.09;4935860;29;20413;-70
2022/01/01 06:19:25;;;;;;;19.37;16.77;;;12.00;99.90;;;12.19;81.33;101574.63;4935502;29;20456;-70
2022/01/01 06:21:53;;;;;;;23.43;17.53;;;12.00;99.90;;;12.10;81.35;101579.34;4935040;29;20491;-70
2022/01/01 06:24:24;;;;;;;24.33;18.37;;;11.90;99.90;;;12.18;81.00;101576.50;4935706;29;20915;-71
2022/01/01 06:26:53;;;;;;;24.87;18.40;;;12.00;99.90;;;12.17;81.16;101582.13;4936017;29;20408;-71
2022/01/01 06:29:22;;;;;;;29.80;18.40;;;12.00;99.90;;;12.14;81.12;101585.22;4935194;29;20413;-70
2022/01/01 06:31:50;;;;;;;24.83;18.60;;;12.00;99.90;;;12.20;80.90;101579.00;4935891;29;20816;-71
2022/01/01 06:34:19;;;;;;;27.10;18.10;;;12.00;99.90;;;12.16;81.27;101583.13;4934125;29;20446;-72
2022/01/01 06:36:51;;;;;;;23.67;16.33;;;12.00;99.90;;;12.19;80.68;101588.19;4936166;28;20774;-70
2022/01/01 06:39:20;;;;;;;28.30;18.90;;;12.00;99.90;;;12.20;80.86;101584.41;4935850;29;20428;-70
2022/01/01 06:41:48;;;;;;;19.90;17.20;;;12.00;99.90;;;12.21;80.86;101588.81;4935099;28;20797;-70
2022/01/01 06:44:17;;;;;;;23.50;17.73;;;12.00;99.90;;;12.24;80.90;101593.03;4935179;29;20418;-70
2022/01/01 06:46:45;;;;;;;20.70;17.40;;;12.00;99.90;;;12.24;80.94;101602.00;4935187;29;20483;-71
2022/01/01 06:49:14;;;;;;;21.40;16.13;;;12.00;99.90;;;12.18;80.89;101600.06;4936154;29;20411;-71
2022/01/01 06:51:42;;;;;;;30.03;18.17;;;12.00;99.90;;;12.14;80.86;101602.34;4936079;29;20487;-71
2022/01/01 06:54:12;;;;;;;32.43;18.23;;;12.00;99.90;;;12.18;80.53;101613.66;4950468;28;20426;-70
2022/01/01 06:56:41;;;;;;;22.73;16.17;;;12.00;99.90;;;12.15;80.78;101608.63;4936244;29;20407;-70
2022/01/01 06:59:09;;;;;;;37.10;16.47;;;12.00;99.90;;;12.24;80.65;101612.88;4935927;29;20440;-69
2022/01/01 07:01:38;;;;;;;22.03;16.43;;;12.00;99.90;;;12.21;80.54;101613.25;4934959;29;20463;-70
2022/01/01 07:04:07;;;;;;;19.67;16.50;;;12.00;99.90;;;12.15;80.72;101611.34;4935378;29;20407;-71
2022/01/01 07:06:35;;;;;;;24.37;17.27;;;12.00;99.90;;;12.32;80.49;101615.44;4934921;29;20463;-70
2022/01/01 07:09:07;;;;;;;30.90;20.03;;;12.00;99.90;;;12.19;80.66;101615.34;4935163;29;20424;-70
2022/01/01 07:11:36;;;;;;;25.07;17.63;;;12.00;99.90;;;12.19;80.69;101621.59;4934923;29;20427;-69
2022/01/01 07:14:05;;;;;;;26.73;17.97;;;12.00;99.90;;;12.24;80.71;101626.44;4934986;29;20459;-71
2022/01/01 07:16:33;;;;;;;26.70;18.13;;;12.00;99.90;;;12.20;80.59;101633.28;4934542;29;20439;-71
2022/01/01 07:19:02;;;;;;;30.97;17.27;;;12.00;99.90;;;12.28;80.33;101635.88;4934587;29;20847;-69
2022/01/01 07:21:30;;;;;;;28.23;17.47;;;12.00;99.90;;;12.25;80.35;101630.81;4941156;23;20475;-69
2022/01/01 07:23:59;;;;;;;23.73;16.87;;;12.00;99.90;;;12.13;80.62;101632.38;4916559;29;20746;-69
2022/01/01 07:26:27;;;;;;;30.20;18.17;;;12.00;99.90;;;12.20;80.35;101633.28;4917864;29;20434;-69
2022/01/01 07:28:57;;;;;;;28.00;18.17;;;12.00;99.90;;;12.19;80.47;101647.91;4917563;29;20953;-70
2022/01/01 07:31:26;;;;;;;35.10;18.33;;;12.00;99.90;;;12.26;80.23;101648.78;4917392;29;20828;-70
2022/01/01 07:33:55;;;;;;;24.40;16.80;;;12.00;99.90;;;12.23;80.34;101641.03;4916821;29;20414;-70
2022/01/01 07:36:23;;;;;;;24.50;17.17;;;12.10;99.90;;;12.19;80.26;101650.59;4917321;29;20528;-70
2022/01/01 07:38:51;;;;;;;30.33;18.90;;;12.00;99.90;;;12.19;80.34;101642.47;4916249;29;20560;-70
2022/01/01 07:41:20;;;;;;;26.20;16.70;;;12.00;99.90;;;12.21;80.45;101662.09;4917354;29;20455;-70
2022/01/01 07:43:48;;;;;;;21.10;16.53;;;12.00;99.90;;;12.18;80.39;101659.78;4918689;29;20802;-70
2022/01/01 07:46:18;;;;;;;26.07;17.70;;;12.00;99.90;;;12.17;80.49;101658.94;4918604;29;20433;-69
2022/01/01 07:48:46;;;;;;;24.30;17.00;;;12.00;99.90;;;12.17;80.45;101667.06;4916658;29;20435;-70
2022/01/01 07:51:14;;;;;;;31.13;17.63;;;12.00;99.90;;;12.20;80.36;101672.09;4915141;29;20495;-70
2022/01/01 07:53:43;;;;;;;27.47;17.80;;;12.00;99.90;;;12.15;80.42;101674.56;4919997;29;20492;-68
2022/01/01 07:56:11;;;;;;;31.17;18.60;;;12.00;99.90;;;12.24;80.40;101671.72;4920667;29;20435;-68
2022/01/01 07:58:39;;;;;;;26.20;17.13;;;12.00;99.90;;;12.24;80.19;101677.16;4921778;29;20813;-69
2022/01/01 08:01:08;;;;;;;26.67;18.00;;;12.00;99.90;;;12.24;80.40;101678.00;4921245;29;20447;-71
2022/01/01 08:03:38;;;;;;;32.10;17.60;;;12.00;99.90;;;12.18;80.31;101678.78;4922442;29;20457;-72
2022/01/01 08:06:06;;;;;;;28.50;18.03;;;12.10;99.90;;;12.17;80.28;101687.94;4920584;29;20523;-70
2022/01/01 08:08:35;;;;;;;26.20;18.83;;;12.00;99.90;;;12.23;80.30;101683.63;4919836;29;20828;-71
2022/01/01 08:11:03;;;;;;;29.97;20.33;;;12.00;99.90;;;12.28;80.33;101689.31;4920506;29;20452;-70
2022/01/01 08:13:35;;;;;;;21.73;15.47;;;12.00;99.90;;;12.22;80.43;101682.78;4920441;29;20497;-70
2022/01/01 08:16:07;;;;;;;31.30;17.30;;;12.00;99.90;;;12.28;80.09;101681.16;4920579;29;20889;-69
2022/01/01 08:18:36;;;;;;;27.87;17.67;;;12.00;99.90;;;12.23;80.24;101681.75;4920551;29;20445;-70
2022/01/01 08:21:05;;;;;;;23.00;17.83;;;12.00;99.90;;;12.24;80.16;101697.00;4920239;29;20452;-71
2022/01/01 08:23:33;;;;;;;29.07;18.87;;;12.00;99.90;;;12.20;80.37;101699.25;4922238;29;20416;-70
2022/01/01 08:26:01;;;;;;;28.03;17.23;;;12.00;99.90;;;12.16;80.49;101697.09;4922579;29;20400;-71
2022/01/01 08:28:30;;;;;;;24.67;18.27;;;12.10;99.90;;;12.24;80.30;101699.72;4924385;29;20404;-70
2022/01/01 08:30:59;;;;;;;24.10;17.70;;;12.10;99.90;;;12.30;80.28;101696.19;4923462;29;20450;-70
2022/01/01 08:33:27;;;;;;;26.57;18.47;;;12.10;99.90;;;12.19;80.33;101691.31;4922776;29;20516;-70
2022/01/01 08:35:57;;;;;;;24.90;17.60;;;12.00;99.90;;;12.30;80.01;101698.91;4922918;29;20497;-67
2022/01/01 08:38:25;;;;;;;32.07;19.77;;;12.10;99.90;;;12.20;80.48;101715.50;4924035;29;20433;-70
2022/01/01 08:40:53;;;;;;;27.10;17.80;;;12.10;99.90;;;12.27;80.15;101702.03;4924093;29;20500;-69
2022/01/01 08:43:23;;;;;;;24.07;17.00;;;12.10;99.90;;;12.30;80.47;101698.91;4925367;29;20418;-68
2022/01/01 08:45:51;;;;;;;25.30;17.80;;;12.10;99.90;;;12.36;79.81;101700.00;4924694;29;20923;-71
2022/01/01 08:48:19;;;;;;;29.07;18.17;;;12.20;99.90;;;12.45;79.64;101713.25;4924108;29;20910;-69
2022/01/01 08:50:48;;;;;;;31.73;21.23;;;12.20;99.90;;;12.46;79.54;101723.09;4923207;29;20457;-70
2022/01/01 08:53:18;;;;;;;26.57;18.27;;;12.20;99.90;;;12.51;79.40;101723.34;4923677;29;20452;-70
2022/01/01 08:55:46;;;;;;;31.60;17.63;;;12.30;99.90;;;12.41;79.55;101722.84;4928115;29;20405;-70
2022/01/01 08:58:14;;;;;;;30.03;17.37;;;12.30;99.90;;;12.49;79.56;101725.41;4928646;29;20445;-71
2022/01/01 09:00:58;;;;;;;23.97;17.43;;;12.30;99.90;;;12.54;79.15;101728.38;4921836;29;20477;-70
2022/01/01 09:03:27;;;;;;;26.43;18.40;;;12.30;99.90;;;12.51;79.01;101723.34;4916573;29;20411;-70
2022/01/01 09:05:55;;;;;;;23.90;14.87;;;12.30;99.90;;;12.48;79.36;101723.75;4917174;29;20431;-70
2022/01/01 09:08:37;;;;;;;29.70;18.43;;;12.30;99.90;;;12.54;78.83;101733.81;4917036;29;20408;-69
2022/01/01 09:11:07;;;;;;;24.93;17.90;;;12.30;99.90;;;12.59;79.05;101733.22;4916649;29;20829;-71
2022/01/01 09:13:41;;;;;;;21.10;16.40;;;12.40;99.90;;;12.51;78.98;101745.06;4916856;29;20430;-69
2022/01/01 09:16:11;;;;;;;25.23;18.13;;;12.40;99.90;;;12.67;78.82;101749.41;4916483;29;20465;-68
2022/01/01 09:18:40;;;;;;;27.17;16.57;;;12.40;99.90;;;12.73;78.38;101754.03;4916956;29;20416;-69
2022/01/01 09:21:11;;;;;;;27.20;17.60;;;12.50;99.90;;;12.73;78.11;101753.22;4916258;29;20484;-69
2022/01/01 09:23:42;;;;;;;25.17;16.33;;;12.50;99.90;;;12.74;78.08;101761.16;4916919;29;20400;-70
2022/01/01 09:26:11;;;;;;;23.57;17.70;;;12.50;99.90;;;12.76;78.02;101763.69;4916731;29;20397;-69
2022/01/01 09:28:39;;;;;;;27.83;18.67;;;12.50;99.90;;;12.79;78.35;101761.41;4917649;29;20404;-71
2022/01/01 09:31:07;;;;;;;41.93;20.03;;;12.60;99.90;;;12.69;78.14;101762.75;4916969;29;20426;-69
2022/01/01 09:33:36;;;;;;;25.57;18.20;;;12.60;99.90;;;12.71;78.22;101766.97;4918180;29;20445;-71
2022/01/01 09:36:06;;;;;;;28.90;19.07;;;12.50;99.90;;;12.76;78.11;101769.09;4918412;29;20407;-70
2022/01/01 09:38:35;;;;;;;24.40;17.90;;;12.50;99.90;;;12.81;77.74;101772.09;4917011;29;20407;-70
2022/01/01 09:41:05;;;;;;;35.03;18.07;;;12.60;99.90;;;12.78;77.93;101778.72;4916856;29;20477;-70
2022/01/01 09:43:35;;;;;;;30.20;19.80;;;12.60;99.90;;;12.77;77.93;101787.94;4916977;29;20411;-70
2022/01/01 09:46:04;;;;;;;26.90;18.73;;;12.60;99.90;;;12.84;77.61;101779.81;4916283;29;20455;-70
2022/01/01 09:48:33;;;;;;;34.53;18.53;;;12.60;99.90;;;12.82;77.85;101785.47;4916967;29;20452;-71
2022/01/01 09:51:04;;;;;;;42.30;22.00;;;12.60;99.90;;;12.86;77.70;101791.34;4916808;29;20424;-72
2022/01/01 09:53:33;;;;;;;29.57;20.23;;;12.60;99.90;;;12.80;77.90;101792.13;4917447;29;20457;-73
2022/01/01 09:56:05;;;;;;;29.63;19.97;;;12.60;99.90;;;12.85;77.76;101795.94;4917021;29;20422;-70
2022/01/01 09:58:37;;;;;;;27.90;18.33;;;12.60;99.90;;;12.73;77.94;101808.34;4917531;29;20771;-71
2022/01/01 10:01:07;;;;;;;29.43;20.00;;;12.60;99.90;;;12.71;78.21;101809.59;4917225;29;20479;-70
2022/01/01 10:03:40;;;;;;;35.63;20.30;;;12.60;99.90;;;12.75;78.15;101810.88;4916513;29;20480;-70
2022/01/01 10:06:12;;;;;;;27.90;19.37;;;12.60;99.90;;;12.75;78.52;101810.88;4915997;29;20452;-70
2022/01/01 10:08:42;;;;;;;30.33;18.83;;;12.60;99.90;;;12.72;77.95;101811.28;4915981;29;20540;-69